Time;durP1;ratioP1;P1;durP2;ratioP2;P2;SDS_P1;SDS_P2;PMS_P1;PMS_P2;Temp;Humidity;BMP_temperature;BMP_pressure;BME280_temperature;BME280_humidity;BME280_pressure;Samples;Min_cycle;Max_cycle;Signal;HPM_P1;HPM_P2
2022/04/25 00:01:05;;;;;;;15.52;6.70;;;;;;;;;;5085545;28;20535;-65
2022/04/25 00:03:31;;;;;;;20.08;7.88;;;;;;;;;;5089023;28;20044;-65
2022/04/25 00:05:57;;;;;;;9.02;5.70;;;;;;;;;;5089342;28;20044;-65
2022/04/25 00:08:23;;;;;;;12.27;6.43;;;;;;;;;;5087731;28;21306;-65
2022/04/25 00:10:50;;;;;;;10.60;5.53;;;;;;;;;;5089880;28;20045;-65
2022/04/25 00:13:16;;;;;;;10.85;5.78;;;;;;;;;;5052266;28;20064;-65
2022/04/25 00:15:42;;;;;;;12.57;5.50;;;;;;;;;;5089570;28;20091;-66
2022/04/25 00:18:09;;;;;;;13.13;6.47;;;;;;;;;;5088422;28;20070;-65
2022/04/25 00:20:36;;;;;;;10.68;5.60;;;;;;;;;;5086966;28;20032;-65
2022/04/25 00:23:05;;;;;;;10.40;6.10;;;;;;;;;;5087259;28;20093;-65
2022/04/25 00:25:35;;;;;;;7.40;5.10;;;;;;;;;;5089560;28;20085;-65
2022/04/25 00:28:01;;;;;;;10.80;4.90;;;;;;;;;;5088503;28;20036;-65
2022/04/25 00:30:31;;;;;;;12.02;5.75;;;;;;;;;;5069728;28;20050;-65
2022/04/25 00:32:57;;;;;;;9.27;5.22;;;;;;;;;;5088605;28;20123;-65
2022/04/25 00:35:24;;;;;;;7.82;5.05;;;;;;;;;;5051259;28;20040;-65
2022/04/25 00:37:51;;;;;;;8.38;5.07;;;;;;;;;;5089288;28;20040;-65
2022/04/25 00:40:21;;;;;;;9.07;4.88;;;;;;;;;;5089173;28;20067;-65
2022/04/25 00:42:48;;;;;;;12.52;6.00;;;;;;;;;;5088956;28;20496;-65
2022/04/25 00:45:15;;;;;;;7.15;4.25;;;;;;;;;;5089172;28;20525;-65
2022/04/25 00:47:41;;;;;;;7.53;4.72;;;;;;;;;;5037271;28;20512;-65
2022/04/25 00:50:08;;;;;;;7.90;4.75;;;;;;;;;;5086209;28;20547;-65
2022/04/25 00:52:34;;;;;;;11.77;4.75;;;;;;;;;;5088130;28;20405;-65
2022/04/25 00:55:01;;;;;;;7.97;5.53;;;;;;;;;;5088984;28;20039;-65
2022/04/25 00:57:28;;;;;;;6.68;4.75;;;;;;;;;;5086387;28;20044;-65
2022/04/25 00:59:58;;;;;;;13.70;5.32;;;;;;;;;;5047769;28;20080;-65
2022/04/25 01:02:26;;;;;;;7.72;4.90;;;;;;;;;;5041521;28;20037;-65
2022/04/25 01:04:53;;;;;;;8.88;4.88;;;;;;;;;;5040680;28;20139;-65
2022/04/25 01:07:19;;;;;;;7.88;4.60;;;;;;;;;;5035698;28;20044;-65
2022/04/25 01:09:45;;;;;;;9.02;5.38;;;;;;;;;;5049245;28;20237;-65
2022/04/25 01:12:12;;;;;;;7.50;4.93;;;;;;;;;;5042105;28;20460;-65
2022/04/25 01:14:38;;;;;;;9.75;5.72;;;;;;;;;;5028428;28;20099;-65
2022/04/25 01:17:04;;;;;;;9.13;5.75;;;;;;;;;;5048565;28;20037;-65
2022/04/25 01:19:31;;;;;;;12.88;6.47;;;;;;;;;;5043755;28;20028;-65
2022/04/25 01:21:59;;;;;;;15.45;7.35;;;;;;;;;;5036598;28;20052;-65
2022/04/25 01:27:17;;;;;;;11.07;5.88;;;;;;;;;;5035577;28;20277;-65
2022/04/25 01:29:43;;;;;;;;;;;;;;;;;;5041709;28;20272;-65
2022/04/25 01:32:10;;;;;;;12.77;6.85;;;;;;;;;;5045336;28;19928;-65
2022/04/25 01:34:37;;;;;;;9.52;5.50;;;;;;;;;;5038523;28;20040;-65
2022/04/25 01:37:07;;;;;;;11.15;6.13;;;;;;;;;;5045658;28;20060;-65
2022/04/25 01:39:37;;;;;;;10.55;6.68;;;;;;;;;;5044112;28;20049;-65
2022/04/25 01:42:07;;;;;;;9.38;5.45;;;;;;;;;;5044286;28;20045;-66
2022/04/25 01:44:33;;;;;;;10.15;5.95;;;;;;;;;;5038535;28;20171;-65
2022/04/25 01:46:59;;;;;;;10.07;6.93;;;;;;;;;;5033870;28;20073;-65
2022/04/25 01:49:26;;;;;;;11.57;6.43;;;;;;;;;;5033765;28;20153;-65
2022/04/25 01:51:52;;;;;;;12.23;6.35;;;;;;;;;;5031027;28;20088;-65
2022/04/25 01:54:21;;;;;;;9.60;5.60;;;;;;;;;;5029451;28;20103;-65
2022/04/25 01:56:47;;;;;;;13.02;6.18;;;;;;;;;;5043214;28;20123;-65
2022/04/25 01:59:13;;;;;;;10.95;5.95;;;;;;;;;;5053805;28;20602;-65
2022/04/25 02:01:40;;;;;;;13.30;6.88;;;;;;;;;;5062980;28;20052;-65
2022/04/25 02:04:06;;;;;;;7.30;6.07;;;;;;;;;;5064601;28;20072;-65
2022/04/25 02:06:32;;;;;;;12.82;6.40;;;;;;;;;;5066907;28;20098;-65
2022/04/25 02:08:58;;;;;;;10.05;7.05;;;;;;;;;;5067103;28;20076;-65
2022/04/25 02:11:25;;;;;;;11.75;6.35;;;;;;;;;;5063855;28;20068;-65
2022/04/25 02:13:52;;;;;;;12.27;6.35;;;;;;;;;;5058001;28;20547;-65
2022/04/25 02:16:18;;;;;;;10.77;5.20;;;;;;;;;;5062291;28;20482;-65
2022/04/25 02:18:45;;;;;;;9.00;6.05;;;;;;;;;;5053370;28;20071;-65
2022/04/25 02:21:11;;;;;;;12.68;7.32;;;;;;;;;;5067530;28;20048;-65
2022/04/25 02:23:38;;;;;;;11.93;7.15;;;;;;;;;;5066831;28;20044;-65
2022/04/25 02:26:08;;;;;;;14.52;6.53;;;;;;;;;;5063797;28;20453;-65
2022/04/25 02:28:34;;;;;;;10.20;6.28;;;;;;;;;;5065587;28;20044;-65
2022/04/25 02:31:01;;;;;;;9.10;6.53;;;;;;;;;;5052073;28;20036;-65
2022/04/25 02:33:27;;;;;;;10.18;6.82;;;;;;;;;;5057827;28;20040;-65
2022/04/25 02:35:55;;;;;;;13.70;7.85;;;;;;;;;;5065147;28;20127;-65
2022/04/25 02:38:21;;;;;;;10.23;6.38;;;;;;;;;;5066107;28;20516;-65
2022/04/25 02:41:04;;;;;;;11.05;6.22;;;;;;;;;;5060179;28;20048;-64
2022/04/25 02:43:30;;;;;;;;;;;;;;;;;;5050241;28;20040;-64
2022/04/25 02:45:56;;;;;;;11.65;6.10;;;;;;;;;;5059003;28;19920;-64
2022/04/25 02:48:22;;;;;;;11.35;7.28;;;;;;;;;;5068095;28;20041;-65
2022/04/25 02:50:48;;;;;;;10.40;6.53;;;13.70;94.80;;;;;;5056154;28;20037;-65
2022/04/25 02:53:14;;;;;;;9.85;6.55;;;9.00;99.90;;;;;;5066944;28;20098;-64
2022/04/25 02:55:40;;;;;;;11.88;6.93;;;8.80;99.90;;;;;;5065883;28;20486;-65
2022/04/25 02:58:06;;;;;;;10.57;6.38;;;8.80;99.90;;;;;;5071194;28;20050;-65
2022/04/25 03:00:32;;;;;;;11.70;6.20;;;8.70;99.90;;;;;;5085500;28;20516;-65
2022/04/25 03:02:57;;;;;;;8.55;6.00;;;8.80;99.90;;;;;;5063204;28;20149;-65
2022/04/25 03:05:23;;;;;;;12.88;6.45;;;8.70;99.90;;;;;;5066345;28;20043;-65
2022/04/25 03:07:49;;;;;;;12.43;6.80;;;8.70;99.90;;;;;;5087130;28;20059;-65
2022/04/25 03:10:15;;;;;;;9.20;5.53;;;8.70;99.90;;;;;;5075641;28;20036;-64
2022/04/25 03:12:41;;;;;;;10.10;6.15;;;;;;;;;;5070293;28;20124;-64
2022/04/25 03:15:07;;;;;;;9.23;5.93;;;;;;;;;;5071488;28;20036;-65
2022/04/25 03:17:33;;;;;;;13.20;5.97;;;;;;;;;;5053880;28;20040;-65
2022/04/25 03:19:59;;;;;;;10.32;6.00;;;;;;;;;;5073173;28;20178;-65
2022/04/25 03:22:26;;;;;;;9.00;6.22;;;;;;;;;;5083135;28;20173;-65
2022/04/25 03:24:52;;;;;;;13.70;6.32;;;;;;;;;;5044898;28;20036;-65
2022/04/25 03:27:18;;;;;;;9.90;6.03;;;;;;;;;;5077140;28;20394;-65
2022/04/25 03:29:45;;;;;;;10.38;6.82;;;;;;;;;;5085393;28;20040;-64
2022/04/25 03:32:11;;;;;;;12.43;6.68;;;;;;;;;;5072604;28;20085;-64
2022/04/25 03:34:37;;;;;;;12.82;6.55;;;;;;;;;;5080457;28;20401;-65
2022/04/25 03:37:04;;;;;;;8.93;5.72;;;;;;;;;;5086085;28;20263;-65
2022/04/25 03:39:30;;;;;;;8.55;5.63;;;;;;;;;;5077138;28;20082;-64
2022/04/25 03:41:56;;;;;;;9.77;5.80;;;;;;;;;;5079860;28;20503;-65
2022/04/25 03:44:22;;;;;;;9.50;5.07;;;;;;;;;;5074531;28;20559;-65
2022/04/25 03:46:48;;;;;;;10.05;6.50;;;;;;;;;;5090681;28;20040;-65
2022/04/25 03:49:15;;;;;;;10.27;5.85;;;;;;;;;;5090580;28;20040;-64
2022/04/25 03:51:42;;;;;;;12.65;6.97;;;;;;;;;;5068765;28;20036;-65
2022/04/25 03:54:08;;;;;;;11.73;6.88;;;;;;;;;;5073625;28;20063;-65
2022/04/25 03:59:19;;;;;;;11.10;7.20;;;;;;;;;;5076039;28;20048;-65
2022/04/25 04:01:45;;;;;;;11.55;6.72;;;;;;;;;;5080833;28;20440;-65
2022/04/25 04:04:11;;;;;;;10.48;6.78;;;;;;;;;;5063049;28;20078;-65
2022/04/25 04:06:37;;;;;;;10.73;6.78;;;;;;;;;;5066968;28;20176;-65
2022/04/25 04:09:44;;;;;;;13.38;7.00;;;;;;;;;;5076500;28;20494;-65
2022/04/25 04:11:50;;;;;;;9.50;6.57;;;;;;;;;;5061205;28;20442;-65
2022/04/25 04:14:16;;;;;;;13.93;5.80;;;;;;;;;;5059790;28;20044;-65
2022/04/25 04:16:44;;;;;;;11.77;6.50;;;;;;;;;;5088570;28;20523;-65
2022/04/25 04:19:12;;;;;;;12.13;6.00;;;;;;;;;;5069959;28;20048;-65
2022/04/25 04:21:38;;;;;;;11.32;6.82;;;;;;;;;;5087388;28;21108;-65
2022/04/25 04:24:05;;;;;;;11.93;6.43;;;;;;;;;;5064478;28;20044;-65
2022/04/25 04:26:31;;;;;;;11.77;6.75;;;;;;;;;;5088485;28;20042;-65
2022/04/25 04:28:57;;;;;;;10.75;6.30;;;;;;;;;;5086386;28;20101;-65
2022/04/25 04:31:23;;;;;;;11.05;6.50;;;;;;;;;;5079351;28;20501;-65
2022/04/25 04:33:50;;;;;;;9.00;6.50;;;;;;;;;;5054358;28;20048;-65
2022/04/25 04:36:18;;;;;;;9.80;7.07;;;;;;;;;;5088903;28;20036;-65
2022/04/25 04:38:45;;;;;;;14.73;6.45;;;;;;;;;;5063504;28;20043;-65
2022/04/25 04:41:12;;;;;;;11.00;7.10;;;;;;;;;;5087811;28;20043;-65
2022/04/25 04:43:38;;;;;;;10.55;5.88;;;;;;;;;;5088195;28;20036;-65
2022/04/25 04:46:04;;;;;;;11.65;6.53;;;;;;;;;;5088496;28;20501;-65
2022/04/25 04:48:31;;;;;;;10.43;6.00;;;;;;;;;;5082748;28;20044;-64
2022/04/25 04:50:58;;;;;;;9.23;6.45;;;;;;;;;;5073384;28;20044;-65
2022/04/25 04:53:24;;;;;;;10.13;6.28;;;;;;;;;;5076502;28;20571;-65
2022/04/25 04:55:51;;;;;;;9.35;6.65;;;;;;;;;;5085264;28;20036;-65
2022/04/25 04:58:21;;;;;;;10.15;5.75;;;;;;;;;;5083193;28;20056;-65
2022/04/25 05:00:47;;;;;;;9.95;6.03;;;;;;;;;;5087213;28;20604;-65
2022/04/25 05:03:15;;;;;;;10.70;6.03;;;;;;;;;;5083343;28;20428;-65
2022/04/25 05:05:42;;;;;;;11.57;7.45;;;;;;;;;;5067024;28;20048;-65
2022/04/25 05:08:08;;;;;;;11.73;6.68;;;;;;;;;;5074426;28;20040;-65
2022/04/25 05:10:34;;;;;;;10.32;6.95;;;;;;;;;;5054230;28;20036;-65
2022/04/25 05:13:00;;;;;;;12.63;6.10;;;;;;;;;;5090047;28;20066;-65
2022/04/25 05:15:26;;;;;;;8.02;5.85;;;;;;;;;;5087569;28;20044;-65
2022/04/25 05:17:53;;;;;;;13.90;6.78;;;;;;;;;;5086707;28;20051;-65
2022/04/25 05:20:23;;;;;;;12.25;7.95;;;;;;;;;;5086702;28;20067;-65
2022/04/25 05:22:49;;;;;;;9.48;6.32;;;;;;;;;;5089587;28;20047;-65
2022/04/25 05:25:17;;;;;;;9.80;5.97;;;;;;;;;;5089362;28;20086;-65
2022/04/25 05:27:45;;;;;;;12.93;7.00;;;;;;;;;;5089314;28;20046;-65
2022/04/25 05:30:12;;;;;;;8.73;6.13;;;;;;;;;;5089464;28;20062;-65
2022/04/25 05:32:42;;;;;;;9.60;6.75;;;;;;;;;;5087352;28;20079;-65
2022/04/25 05:35:08;;;;;;;10.38;6.95;;;;;;;;;;5069400;28;20415;-65
2022/04/25 05:37:35;;;;;;;11.43;6.72;;;;;;;;;;5068790;28;20485;-65
2022/04/25 05:40:01;;;;;;;15.75;7.47;;;;;;;;;;5084484;28;20045;-65
2022/04/25 05:42:27;;;;;;;12.43;7.22;;;;;;;;;;5079759;28;20047;-65
2022/04/25 05:44:53;;;;;;;12.02;6.90;;;;;;;;;;5088814;28;20093;-65
2022/04/25 05:47:19;;;;;;;12.48;7.85;;;;;;;;;;5072919;28;20044;-65
2022/04/25 05:52:30;;;;;;;11.77;7.10;;;;;;;;;;5087611;28;20083;-65
2022/04/25 05:54:56;;;;;;;8.88;6.38;;;;;;;;;;5055995;28;20127;-66
2022/04/25 05:57:23;;;;;;;12.50;6.43;;;;;;;;;;5067819;28;20101;-66
2022/04/25 05:59:49;;;;;;;12.45;7.13;;;;;;;;;;5084856;28;20076;-65
2022/04/25 06:02:17;;;;;;;10.90;7.10;;;;;;;;;;5080771;28;20094;-66
2022/04/25 06:04:43;;;;;;;9.60;6.72;;;;;;;;;;5084174;28;20509;-65
2022/04/25 06:07:09;;;;;;;9.63;6.15;;;;;;;;;;5084273;28;20043;-65
2022/04/25 06:09:35;;;;;;;11.02;6.25;;;;;;;;;;5087182;28;20046;-65
2022/04/25 06:12:02;;;;;;;10.68;6.32;;;;;;;;;;5085246;28;20090;-65
2022/04/25 06:14:30;;;;;;;8.80;6.85;;;;;;;;;;5088537;28;20092;-65
2022/04/25 06:16:57;;;;;;;11.57;7.00;;;;;;;;;;5083805;28;20044;-65
2022/04/25 06:19:23;;;;;;;8.63;5.93;;;;;;;;;;5056832;28;20040;-65
2022/04/25 06:21:49;;;;;;;8.70;6.10;;;;;;;;;;5088783;28;20051;-65
2022/04/25 06:24:16;;;;;;;13.73;7.15;;;;;;;;;;5068578;28;20418;-65
2022/04/25 06:26:42;;;;;;;11.13;6.22;;;;;;;;;;5085249;28;20040;-65
2022/04/25 06:29:08;;;;;;;11.88;6.72;;;;;;;;;;5084163;28;20085;-65
2022/04/25 06:31:34;;;;;;;9.02;6.25;;;;;;;;;;5087052;28;20040;-65
2022/04/25 06:34:01;;;;;;;12.50;6.53;;;;;;;;;;5067806;28;20656;-65
2022/04/25 06:36:27;;;;;;;15.63;6.53;;;;;;;;;;5074536;28;20051;-65
2022/04/25 06:38:53;;;;;;;11.50;6.50;;;;;;;;;;5078348;28;20040;-65
2022/04/25 06:41:21;;;;;;;12.43;6.38;;;;;;;;;;5068613;28;20035;-65
2022/04/25 06:43:47;;;;;;;10.23;6.55;;;;;;;;;;5086252;28;20306;-65
2022/04/25 06:46:13;;;;;;;10.25;5.82;;;;;;;;;;5085362;28;20498;-65
2022/04/25 06:48:39;;;;;;;11.93;6.05;;;;;;;;;;5080729;28;20047;-65
2022/04/25 06:51:05;;;;;;;9.05;5.25;;;;;;;;;;5080251;28;20040;-65
2022/04/25 06:53:32;;;;;;;9.27;6.88;;;;;;;;;;5077581;28;20486;-64
2022/04/25 06:55:58;;;;;;;9.10;6.30;;;;;;;;;;5067229;28;20040;-65
2022/04/25 06:58:26;;;;;;;9.20;5.50;;;;;;;;;;5073585;28;20464;-65
2022/04/25 07:00:52;;;;;;;8.60;5.50;;;;;;;;;;5068344;28;20068;-65
2022/04/25 07:03:19;;;;;;;11.80;5.55;;;;;;;;;;5070570;28;20046;-65
2022/04/25 07:05:45;;;;;;;14.27;5.68;;;;;;;;;;5086750;28;20047;-65
2022/04/25 07:08:11;;;;;;;12.50;6.22;;;8.70;99.90;;;;;;5070446;28;20137;-65
2022/04/25 07:10:37;;;;;;;9.43;6.32;;;9.10;99.90;;;;;;5062331;28;20485;-65
2022/04/25 07:13:02;;;;;;;9.35;5.15;;;9.10;99.90;;;;;;5089460;28;20483;-65
2022/04/25 07:15:29;;;;;;;9.20;5.30;;;9.10;99.90;;;;;;5074123;28;20033;-65
2022/04/25 07:17:55;;;;;;;9.40;5.65;;;9.10;99.90;;;;;;5090119;28;20120;-65
2022/04/25 07:20:22;;;;;;;9.68;5.93;;;9.10;99.90;;;;;;5062431;28;20044;-65
2022/04/25 07:31:00;;;;;;;10.55;6.43;;;9.20;99.90;;;;;;5085485;28;20040;-65
2022/04/25 07:33:26;;;;;;;8.93;6.10;;;9.20;99.90;;;;;;5088936;28;20048;-65
2022/04/25 07:35:53;;;;;;;9.05;6.15;;;9.20;99.90;;;;;;5060757;28;20040;-65
2022/04/25 07:38:20;;;;;;;11.98;6.53;;;9.20;99.90;;;;;;5075889;28;20416;-65
2022/04/25 07:40:46;;;;;;;10.75;6.95;;;9.20;99.90;;;;;;5067339;28;20040;-65
2022/04/25 07:43:12;;;;;;;9.02;6.38;;;9.30;99.90;;;;;;5086829;28;20043;-65
2022/04/25 07:45:39;;;;;;;13.90;8.02;;;9.30;99.90;;;;;;5080144;28;20043;-65
2022/04/25 07:48:05;;;;;;;8.85;5.78;;;9.30;99.90;;;;;;5089129;28;20040;-65
2022/04/25 07:50:31;;;;;;;7.97;5.72;;;9.30;99.90;;;;;;5087120;28;20085;-65
2022/04/25 07:52:56;;;;;;;11.85;6.95;;;9.40;99.90;;;;;;5073796;28;20522;-65
2022/04/25 07:55:22;;;;;;;10.65;5.93;;;9.40;99.90;;;;;;5079896;28;20032;-65
2022/04/25 07:57:48;;;;;;;9.77;5.60;;;9.40;99.90;;;;;;5089454;28;20032;-65
2022/04/25 08:00:14;;;;;;;9.38;6.47;;;9.40;99.90;;;;;;5063079;28;20047;-65
2022/04/25 08:02:40;;;;;;;9.85;5.95;;;9.40;99.90;;;;;;5068337;28;20227;-65
2022/04/25 08:05:08;;;;;;;14.30;7.07;;;9.40;99.90;;;;;;5059694;28;20032;-65
2022/04/25 08:07:34;;;;;;;9.40;6.75;;;9.40;99.90;;;;;;5071486;28;20146;-65
2022/04/25 08:10:00;;;;;;;9.38;6.65;;;9.40;99.90;;;;;;5070227;28;20044;-65
2022/04/25 08:18:01;;;;;;;14.10;5.32;;;;;;;;;;5079742;28;20052;-65
2022/04/25 08:20:28;;;;;;;8.15;6.22;;;;;;;;;;5085249;28;20051;-65
2022/04/25 08:22:55;;;;;;;10.68;6.05;;;;;;;;;;5087582;28;20127;-65
2022/04/25 08:25:22;;;;;;;10.95;6.55;;;;;;;;;;5088147;28;20039;-65
2022/04/25 08:27:48;;;;;;;8.65;5.47;;;;;;;;;;5091198;28;20039;-65
2022/04/25 08:30:14;;;;;;;14.60;5.50;;;;;;;;;;5082959;28;20241;-65
2022/04/25 08:32:40;;;;;;;20.15;6.20;;;;;;;;;;5070524;28;20052;-65
2022/04/25 08:35:09;;;;;;;10.55;5.43;;;;;;;;;;5085255;28;20409;-65
2022/04/25 08:37:36;;;;;;;11.98;5.05;;;;;;;;;;5082133;28;20484;-65
2022/04/25 08:40:02;;;;;;;8.77;5.20;;;;;;;;;;5079093;28;20048;-65
2022/04/25 08:42:29;;;;;;;8.63;5.38;;;;;;;;;;5086867;28;20137;-65
2022/04/25 08:44:57;;;;;;;11.23;5.90;;;;;;;;;;5090789;28;20036;-65
2022/04/25 08:47:27;;;;;;;7.88;5.30;;;;;;;;;;5088723;28;20043;-64
2022/04/25 08:49:55;;;;;;;9.95;5.88;;;;;;;;;;5088577;28;20115;-65
2022/04/25 08:52:22;;;;;;;13.88;5.85;;;;;;;;;;5064637;28;20302;-65
2022/04/25 08:54:49;;;;;;;10.93;5.00;;;;;;;;;;5072433;28;20198;-65
2022/04/25 08:57:17;;;;;;;6.60;4.50;;;;;;;;;;5072502;28;20119;-65
2022/04/25 08:59:44;;;;;;;8.57;5.53;;;;;;;;;;5077351;28;20049;-65
2022/04/25 09:02:10;;;;;;;11.07;5.60;;;;;;;;;;5074866;28;20051;-65
2022/04/25 09:04:37;;;;;;;9.23;5.32;;;;;;;;;;5082273;28;20090;-65
2022/04/25 09:07:04;;;;;;;7.22;4.43;;;;;;;;;;5082359;28;20036;-65
2022/04/25 09:09:31;;;;;;;8.80;4.80;;;;;;;;;;5088415;28;20093;-65
2022/04/25 09:12:09;;;;;;;9.55;4.90;;;;;;;;;;5078022;28;20036;-65
2022/04/25 09:14:39;;;;;;;10.50;4.90;;;;;;;;;;5072025;28;20387;-64
2022/04/25 09:17:05;;;;;;;9.10;4.43;;;;;;;;;;5083164;28;20059;-65
2022/04/25 09:19:32;;;;;;;6.22;4.63;;;;;;;;;;5053777;28;20043;-65
2022/04/25 09:21:58;;;;;;;10.90;4.63;;;;;;;;;;5064424;28;20052;-65
2022/04/25 09:24:24;;;;;;;8.48;4.47;;;;;;;;;;5087991;28;20446;-66
2022/04/25 09:26:52;;;;;;;8.52;4.32;;;;;;;;;;5078579;28;20051;-65
2022/04/25 09:29:25;;;;;;;7.43;4.20;;;;;;;;;;5085206;28;20044;-65
2022/04/25 09:31:52;;;;;;;9.23;4.55;;;;;;;;;;5075340;28;20062;-65
2022/04/25 09:34:59;;;;;;;8.27;4.22;;;;;;;;;;5086606;28;20071;-64
2022/04/25 09:37:06;;;;;;;9.75;4.22;;;;;;;;;;5056220;28;20036;-66
2022/04/25 09:39:32;;;;;;;7.68;4.68;;;;;;;;;;5088916;28;20093;-65
2022/04/25 09:42:00;;;;;;;9.73;4.55;;;;;;;;;;5088481;28;20044;-64
2022/04/25 09:44:26;;;;;;;7.70;4.35;;;;;;;;;;5078026;28;20039;-64
2022/04/25 09:46:52;;;;;;;11.65;5.13;;;;;;;;;;5076223;28;20039;-65
2022/04/25 09:49:22;;;;;;;12.48;5.30;;;;;;;;;;5085171;28;20040;-65
2022/04/25 09:52:01;;;;;;;9.68;4.80;;;;;;;;;;5087958;28;20043;-65
2022/04/25 09:54:27;;;;;;;7.47;4.07;;;;;;;;;;5087106;28;20047;-65
2022/04/25 09:56:53;;;;;;;6.57;3.78;;;;;;;;;;5083558;28;20048;-65
2022/04/25 09:59:21;;;;;;;8.48;3.75;;;;;;;;;;5086805;28;20049;-65
2022/04/25 10:02:02;;;;;;;7.35;4.00;;;;;;;;;;5084364;28;20072;-64
2022/04/25 10:04:32;;;;;;;6.95;3.60;;;;;;;;;;5082287;28;20040;-65
2022/04/25 10:07:04;;;;;;;6.70;3.85;;;;;;;;;;5067495;28;20048;-65
2022/04/25 10:09:31;;;;;;;9.20;3.55;;;;;;;;;;5083989;28;20037;-65
2022/04/25 10:11:59;;;;;;;7.05;4.03;;;;;;;;;;5071028;28;20547;-64
2022/04/25 10:14:25;;;;;;;7.30;3.63;;;;;;;;;;5083959;28;20072;-65
2022/04/25 10:16:52;;;;;;;7.03;3.53;;;;;;;;;;5085821;28;20068;-65
2022/04/25 10:19:19;;;;;;;5.95;3.80;;;;;;;;;;5074166;28;20508;-65
2022/04/25 10:21:46;;;;;;;7.78;4.05;;;;;;;;;;5080039;28;20157;-65
2022/04/25 10:24:13;;;;;;;8.27;3.65;;;;;;;;;;5052357;28;20041;-65
2022/04/25 10:26:39;;;;;;;10.10;4.78;;;;;;;;;;5074424;28;20474;-65
2022/04/25 10:29:10;;;;;;;6.40;3.60;;;;;;;;;;5036745;28;20051;-65
2022/04/25 10:31:41;;;;;;;6.07;3.17;;;;;;;;;;5077446;28;20547;-65
2022/04/25 10:34:08;;;;;;;8.23;4.38;;;;;;;;;;5051758;28;20040;-65
2022/04/25 10:36:37;;;;;;;7.18;3.67;;;;;;;;;;5075677;28;20039;-65
2022/04/25 10:39:16;;;;;;;6.90;3.35;;;;;;;;;;5070464;28;20036;-65
2022/04/25 10:44:29;;;;;;;8.55;3.65;;;;;;;;;;5073386;28;20052;-65
2022/04/25 10:47:04;;;;;;;8.77;3.90;;;;;;;;;;5086931;28;20044;-64
2022/04/25 10:49:31;;;;;;;8.73;4.32;;;;;;;;;;5082505;28;20464;-65
2022/04/25 10:51:57;;;;;;;8.85;3.70;;;;;;;;;;5086243;28;20040;-65
2022/04/25 10:54:27;;;;;;;9.15;4.63;;;;;;;;;;5074078;28;20040;-65
2022/04/25 10:57:08;;;;;;;6.22;2.95;;;;;;;;;;5082497;28;20060;-65
2022/04/25 10:59:35;;;;;;;7.43;3.97;;;;;;;;;;5083007;28;20036;-65
2022/04/25 11:02:19;;;;;;;5.35;3.88;;;;;;;;;;5068850;28;20044;-65
2022/04/25 11:04:46;;;;;;;8.23;4.38;;;;;;;;;;5075479;28;20036;-65
2022/04/25 11:07:23;;;;;;;9.57;4.18;;;;;;;;;;5075826;28;20093;-66
2022/04/25 11:09:49;;;;;;;5.10;3.33;;;;;;;;;;5085115;28;20055;-65
2022/04/25 11:12:16;;;;;;;5.03;3.22;;;;;;;;;;5068184;28;20040;-65
2022/04/25 11:14:58;;;;;;;6.43;3.65;;;;;;;;;;5087964;28;20040;-65
2022/04/25 11:17:26;;;;;;;6.63;3.30;;;;;;;;;;5070266;28;20554;-65
2022/04/25 11:19:57;;;;;;;6.18;3.60;;;;;;;;;;5086306;28;20036;-65
2022/04/25 11:22:31;;;;;;;6.45;3.45;;;;;;;;;;5084917;28;20048;-65
2022/04/25 11:24:57;;;;;;;7.38;3.50;;;;;;;;;;5087765;28;20051;-65
2022/04/25 11:27:23;;;;;;;11.23;3.58;;;;;;;;;;5072464;28;20082;-65
2022/04/25 11:30:08;;;;;;;6.43;3.42;;;;;;;;;;5069693;28;20622;-64
2022/04/25 11:32:37;;;;;;;7.82;3.45;;;;;;;;;;5070041;28;20059;-65
2022/04/25 11:35:04;;;;;;;9.93;4.03;;;;;;;;;;5063712;28;20052;-65
2022/04/25 11:37:32;;;;;;;6.55;4.03;;;;;;;;;;5086461;28;20036;-65
2022/04/25 11:40:09;;;;;;;8.63;4.47;;;;;;;;;;5087537;28;20036;-65
2022/04/25 11:42:36;;;;;;;8.80;4.30;;;;;;;;;;5086938;28;20094;-65
2022/04/25 11:45:03;;;;;;;7.15;4.22;;;;;;;;;;5069698;28;20101;-65
2022/04/25 11:47:31;;;;;;;12.63;5.28;;;;;;;;;;5086332;28;20044;-65
2022/04/25 11:50:01;;;;;;;9.27;4.47;;;;;;;;;;5083802;28;20101;-65
2022/04/25 11:52:27;;;;;;;6.82;3.63;;;;;;;;;;5077973;28;20045;-65
2022/04/25 11:54:55;;;;;;;6.07;4.30;;;;;;;;;;5058570;28;20048;-65
2022/04/25 11:57:21;;;;;;;7.80;4.63;;;;;;;;;;5087582;28;20047;-65
2022/04/25 11:59:48;;;;;;;8.98;5.32;;;;;;;;;;5077496;28;20048;-65
2022/04/25 12:02:15;;;;;;;8.18;4.22;;;;;;;;;;5084028;28;20091;-65
2022/04/25 12:04:43;;;;;;;9.68;4.25;;;;;;;;;;5088041;28;20048;-65
2022/04/25 12:07:10;;;;;;;8.00;4.15;;;;;;;;;;5079198;28;20040;-65
2022/04/25 12:18:11;;;;;;;8.02;3.67;;;;;;;;;;5089488;28;20486;-65
2022/04/25 12:20:40;;;;;;;8.23;4.97;;;;;;;;;;5087291;28;20047;-66
2022/04/25 12:23:06;;;;;;;8.40;3.95;;;;;;;;;;5077334;28;20493;-65
2022/04/25 12:25:33;;;;;;;7.63;4.80;;;;;;;;;;5089073;28;20505;-65
2022/04/25 12:28:15;;;;;;;14.48;4.40;;;;;;;;;;5088899;28;20048;-65
2022/04/25 12:30:52;;;;;;;7.32;3.42;;;;;;;;;;5084308;28;20036;-65
2022/04/25 12:33:20;;;;;;;7.43;4.50;;;;;;;;;;5076339;28;20227;-65
2022/04/25 12:35:47;;;;;;;7.55;3.72;;;;;;;;;;5070951;28;20474;-65
2022/04/25 12:38:31;;;;;;;8.45;4.25;;;;;;;;;;5086939;28;20482;-65
2022/04/25 12:40:58;;;;;;;7.82;3.70;;;;;;;;;;5077649;28;20048;-65
2022/04/25 12:43:34;;;;;;;7.57;3.72;;;;;;;;;;5088645;28;20090;-65
2022/04/25 12:46:00;;;;;;;7.03;4.25;;;;;;;;;;5080693;28;20099;-65
2022/04/25 12:48:26;;;;;;;8.48;4.30;;;;;;;;;;5070350;28;20055;-65
2022/04/25 12:50:53;;;;;;;8.63;4.03;;;;;;;;;;5082215;28;20043;-65
2022/04/25 12:53:37;;;;;;;7.00;4.45;;;;;;;;;;5075690;28;20052;-65
2022/04/25 12:56:03;;;;;;;7.82;3.55;;;;;;;;;;5083071;28;20136;-65
2022/04/25 12:58:33;;;;;;;7.00;3.83;;;;;;;;;;5070309;28;20090;-65
2022/04/25 13:00:59;;;;;;;6.38;3.83;;;;;;;;;;5087919;28;20053;-65
2022/04/25 13:03:29;;;;;;;5.32;3.55;;;;;;;;;;5077810;28;20054;-65
2022/04/25 13:05:55;;;;;;;8.68;3.20;;;;;;;;;;5073783;28;20504;-65
2022/04/25 13:08:21;;;;;;;5.78;3.33;;;;;;;;;;5088288;28;20118;-65
2022/04/25 13:10:47;;;;;;;6.38;3.40;;;;;;;;;;5086753;28;20357;-65
2022/04/25 13:13:14;;;;;;;6.18;3.08;;;;;;;;;;5084368;28;20040;-66
2022/04/25 13:15:43;;;;;;;6.00;3.05;;;;;;;;;;5087108;28;20036;-65
2022/04/25 13:18:09;;;;;;;5.47;2.83;;;;;;;;;;5069240;28;20043;-65
2022/04/25 13:20:35;;;;;;;4.32;2.95;;;;;;;;;;5077990;28;20050;-65
2022/04/25 13:23:02;;;;;;;4.75;2.45;;;;;;;;;;5080588;28;20032;-65
2022/04/25 13:25:28;;;;;;;5.20;3.28;;;;;;;;;;5087475;28;20662;-65
2022/04/25 13:27:54;;;;;;;7.70;3.53;;;;;;;;;;5075751;28;20097;-65
2022/04/25 13:30:21;;;;;;;5.60;3.28;;;;;;;;;;5082660;28;20078;-65
2022/04/25 13:32:48;;;;;;;7.53;3.45;;;;;;;;;;5072292;28;20091;-65
2022/04/25 13:35:15;;;;;;;7.55;3.85;;;;;;;;;;5084889;28;20078;-65
2022/04/25 13:37:41;;;;;;;7.32;3.30;;;;;;;;;;5087938;28;20039;-65
2022/04/25 13:40:08;;;;;;;6.32;3.03;;;;;;;;;;5083502;28;20257;-65
2022/04/25 13:42:35;;;;;;;7.00;3.95;;;;;;;;;;5079622;28;20566;-65
2022/04/25 13:45:01;;;;;;;5.22;2.90;;;;;;;;;;5086102;28;20067;-65
2022/04/25 13:47:28;;;;;;;8.20;3.55;;;;;;;;;;5073224;28;20040;-65
2022/04/25 13:49:54;;;;;;;6.60;3.63;;;;;;;;;;5056257;28;20428;-66
2022/04/25 13:52:20;;;;;;;13.88;3.95;;;;;;;;;;5078831;28;20521;-65
2022/04/25 13:54:47;;;;;;;6.68;3.58;;;;;;;;;;5085594;28;20563;-65
2022/04/25 13:57:13;;;;;;;6.72;3.20;;;;;;;;;;5084016;28;20036;-65
2022/04/25 13:59:40;;;;;;;6.45;3.30;;;;;;;;;;5086227;28;20052;-65
2022/04/25 14:04:51;;;;;;;5.68;3.33;;;;;;;;;;5086126;28;20573;-65
2022/04/25 14:07:17;;;;;;;6.25;3.50;;;;;;;;;;5078761;28;20074;-65
2022/04/25 14:09:44;;;;;;;6.15;3.60;;;;;;;;;;5087051;28;20071;-65
2022/04/25 14:12:13;;;;;;;5.75;2.90;;;;;;;;;;5082789;28;20044;-65
2022/04/25 14:14:39;;;;;;;9.02;3.15;;;;;;;;;;5084418;28;20036;-65
2022/04/25 14:17:06;;;;;;;6.93;3.55;;;;;;;;;;5065842;28;20044;-65
2022/04/25 14:19:32;;;;;;;7.70;2.90;;;;;;;;;;5069955;28;20035;-65
2022/04/25 14:21:58;;;;;;;9.00;3.05;;;;;;;;;;5081123;28;20040;-65
2022/04/25 14:24:25;;;;;;;8.32;2.90;;;;;;;;;;5086047;28;20485;-65
2022/04/25 14:26:52;;;;;;;9.00;3.47;;;;;;;;;;5072216;28;20325;-65
2022/04/25 14:29:18;;;;;;;6.03;3.30;;;;;;;;;;5086985;28;20100;-65
2022/04/25 14:31:44;;;;;;;4.85;2.95;;;;;;;;;;5068780;28;20444;-65
2022/04/25 14:34:10;;;;;;;7.28;3.22;;;;;;;;;;5086286;28;20126;-65
2022/04/25 14:36:37;;;;;;;5.30;2.92;;;;;;;;;;5072053;28;20036;-65
2022/04/25 14:39:03;;;;;;;9.32;3.15;;;;;;;;;;5076811;28;20543;-66
2022/04/25 14:41:29;;;;;;;5.25;2.95;;;;;;;;;;5086835;28;20089;-65
2022/04/25 14:43:56;;;;;;;7.20;3.25;;;;;;;;;;5083883;28;20036;-66
2022/04/25 14:46:22;;;;;;;7.13;3.17;;;;;;;;;;5086529;28;20347;-65
2022/04/25 14:48:48;;;;;;;7.75;2.40;;;;;;;;;;5064604;28;20044;-65
2022/04/25 14:54:21;;;;;;;5.93;2.40;;;;;;;;;;5073964;28;20098;-65
2022/04/25 14:56:47;;;;;;;4.40;2.70;;;;;;;;;;5052916;28;20072;-65
2022/04/25 14:59:15;;;;;;;4.95;3.08;;;;;;;;;;5067964;28;20612;-65
2022/04/25 15:01:41;;;;;;;7.13;2.75;;;;;;;;;;5085654;28;20105;-65
2022/04/25 15:04:08;;;;;;;5.72;2.08;;;;;;;;;;5077228;28;20509;-65
2022/04/25 15:06:34;;;;;;;8.90;3.00;;;;;;;;;;5080867;28;20051;-65
2022/04/25 15:09:00;;;;;;;13.70;2.80;;;;;;;;;;5079421;28;20494;-65